< < Back
Terminal Aerodrome Forecast


Current Version              Previous Versions:   1  2  3  4  5  6  7  8  9  

Terminal Aerodrome Forecast

338
FTUS44 KHUN 011725
TAFHSV
TAF
KHSV 011725Z 0118/0218 14006KT P6SM -RA OVC010
      TEMPO 0120/0123 5SM -RA BR OVC009
     FM020400 VRB03KT 5SM -RA BR OVC005
     FM020800 35006KT 3SM -RA BR OVC005
     FM021400 03008KT 5SM -DZ BR OVC007=

Latest METAR

079
SAUS80 KWBC 020258
MTRHSV
METAR KHSV 020253Z 11003KT 2 1/2SM -RA BR BKN016 OVC045 10/09 A3033 RMK
AO2 SLP270 P0011 60013 T01000089 55000


USA.gov is the U.S. government's official web portal to all federal, state and local government web resources and services.